createdAt,value
2023-01-02T00:01:18.810Z,14.60
2023-01-02T00:03:46.769Z,14.60
2023-01-02T00:06:14.819Z,14.50
2023-01-02T00:08:42.765Z,14.50
2023-01-02T00:11:11.190Z,14.50
2023-01-02T00:13:39.021Z,14.50
2023-01-02T00:16:07.802Z,14.60
2023-01-02T00:18:37.048Z,14.60
2023-01-02T00:21:05.719Z,14.60
2023-01-02T00:23:34.612Z,14.50
2023-01-02T00:26:02.598Z,14.50
2023-01-02T00:28:31.288Z,14.40
2023-01-02T00:30:59.707Z,14.40
2023-01-02T00:33:27.597Z,14.40
2023-01-02T00:36:06.896Z,14.40
2023-01-02T00:38:38.211Z,14.30
2023-01-02T00:41:07.359Z,14.30
2023-01-02T00:43:35.304Z,14.30
2023-01-02T00:46:09.267Z,14.30
2023-01-02T00:48:39.304Z,14.30
2023-01-02T00:51:08.784Z,14.30
2023-01-02T00:53:36.721Z,14.30
2023-01-02T00:56:04.838Z,14.30
2023-01-02T00:58:32.719Z,14.30
2023-01-02T01:01:00.578Z,14.30
2023-01-02T01:03:28.680Z,14.30
2023-01-02T01:05:56.796Z,14.30
2023-01-02T01:08:25.993Z,14.30
2023-01-02T01:10:53.883Z,14.30
2023-01-02T01:13:21.723Z,14.30
2023-01-02T01:15:49.625Z,14.30
2023-01-02T01:18:17.521Z,14.30
2023-01-02T01:20:45.366Z,14.30
2023-01-02T01:23:13.323Z,14.30
2023-01-02T01:25:42.543Z,14.30
2023-01-02T01:28:10.387Z,14.30
2023-01-02T01:30:38.216Z,14.30
2023-01-02T01:33:06.036Z,14.30
2023-01-02T01:35:34.866Z,14.30
2023-01-02T01:38:02.770Z,14.30
2023-01-02T01:40:37.585Z,14.30
2023-01-02T01:43:11.406Z,14.30
2023-01-02T01:45:42.659Z,14.20
2023-01-02T01:48:14.590Z,14.20
2023-01-02T01:50:43.391Z,14.30
2023-01-02T01:53:15.425Z,14.30
2023-01-02T01:55:48.480Z,14.30
2023-01-02T01:58:21.947Z,14.40
2023-01-02T02:00:50.786Z,14.40
2023-01-02T02:03:22.850Z,14.40
2023-01-02T02:05:51.428Z,14.40
2023-01-02T02:08:21.745Z,14.40
2023-01-02T02:10:51.404Z,14.40
2023-01-02T02:13:20.685Z,14.40
2023-01-02T02:16:05.354Z,14.40
2023-01-02T02:18:45.978Z,14.40
2023-01-02T02:21:31.903Z,14.40
2023-01-02T02:24:33.733Z,14.40
2023-01-02T02:27:11.967Z,14.30
2023-01-02T02:30:11.551Z,14.30
2023-01-02T02:32:59.827Z,14.30
2023-01-02T02:35:38.576Z,14.30
2023-01-02T02:38:12.870Z,14.20
2023-01-02T02:40:50.837Z,14.20
2023-01-02T02:43:29.461Z,14.20
2023-01-02T02:46:06.235Z,14.20
2023-01-02T02:48:46.672Z,14.20
2023-01-02T02:51:20.413Z,14.20
2023-01-02T02:53:54.902Z,14.20
2023-01-02T02:56:26.410Z,14.20
2023-01-02T02:58:55.397Z,14.20
2023-01-02T03:01:30.550Z,14.20
2023-01-02T03:03:59.411Z,14.20
2023-01-02T03:06:39.924Z,14.20
2023-01-02T03:09:18.956Z,14.20
2023-01-02T03:11:56.069Z,14.10
2023-01-02T03:14:34.183Z,14.10
2023-01-02T03:17:08.938Z,14.10
2023-01-02T03:19:41.225Z,14.10
2023-01-02T03:22:13.580Z,14.10
2023-01-02T03:24:44.128Z,14.00
2023-01-02T03:27:16.535Z,14.00
2023-01-02T03:29:47.906Z,14.00
2023-01-02T03:32:24.406Z,14.00
2023-01-02T03:34:53.447Z,14.00
2023-01-02T03:37:25.298Z,13.90
2023-01-02T03:39:55.841Z,14.00
2023-01-02T03:42:29.064Z,13.90
2023-01-02T03:45:01.786Z,14.00
2023-01-02T03:47:36.960Z,14.00
2023-01-02T03:50:11.975Z,14.00
2023-01-02T03:52:39.867Z,14.00
2023-01-02T03:55:09.868Z,14.00
2023-01-02T03:57:55.135Z,14.00
2023-01-02T04:00:30.882Z,14.00
2023-01-02T04:03:07.474Z,14.10
2023-01-02T04:05:43.468Z,14.10
2023-01-02T04:08:17.089Z,14.10
2023-01-02T04:10:47.068Z,14.10
2023-01-02T04:13:20.108Z,14.00
2023-01-02T04:15:50.465Z,14.00
2023-01-02T04:18:23.002Z,14.00
2023-01-02T04:20:54.378Z,14.00
2023-01-02T04:23:26.061Z,14.00
2023-01-02T04:26:00.640Z,14.00
2023-01-02T04:28:30.501Z,14.00
2023-01-02T04:31:05.145Z,14.10
2023-01-02T04:33:39.116Z,14.10
2023-01-02T04:36:10.922Z,14.10
2023-01-02T04:38:38.994Z,14.10
2023-01-02T04:41:08.416Z,14.10
2023-01-02T04:43:36.291Z,14.10
2023-01-02T04:46:04.229Z,14.20
2023-01-02T04:48:32.091Z,14.20
2023-01-02T04:51:01.335Z,14.20
2023-01-02T04:53:29.184Z,14.20
2023-01-02T04:55:57.677Z,14.20
2023-01-02T04:58:26.766Z,14.20
2023-01-02T05:00:54.985Z,14.20
2023-01-02T05:03:22.867Z,14.20
2023-01-02T05:05:50.772Z,14.20
2023-01-02T05:08:19.970Z,14.10
2023-01-02T05:10:47.811Z,14.20
2023-01-02T05:13:15.674Z,14.10
2023-01-02T05:15:43.548Z,14.10
2023-01-02T05:18:11.420Z,14.10
2023-01-02T05:20:39.246Z,14.10
2023-01-02T05:23:24.598Z,14.10
2023-01-02T05:25:53.781Z,14.10
2023-01-02T05:28:21.634Z,14.10
2023-01-02T05:30:50.313Z,14.10
2023-01-02T05:33:18.195Z,14.10
2023-01-02T05:35:46.208Z,14.10
2023-01-02T05:38:14.136Z,14.10
2023-01-02T05:40:41.967Z,14.10
2023-01-02T05:43:11.169Z,14.10
2023-01-02T05:45:39.027Z,14.10
2023-01-02T05:48:07.360Z,14.10
2023-01-02T05:50:35.211Z,14.10
2023-01-02T05:53:03.110Z,14.00
2023-01-02T05:55:31.000Z,14.00
2023-01-02T05:57:59.317Z,14.10
2023-01-02T06:00:28.538Z,14.00
2023-01-02T06:02:56.547Z,14.10
2023-01-02T06:05:24.525Z,14.10
2023-01-02T06:07:52.399Z,14.00
2023-01-02T06:10:20.306Z,14.00
2023-01-02T06:12:48.173Z,13.90
2023-01-02T06:15:16.184Z,13.90
2023-01-02T06:17:45.383Z,13.90
2023-01-02T06:20:13.239Z,13.80
2023-01-02T06:22:41.071Z,13.80
2023-01-02T06:25:09.668Z,13.80
2023-01-02T06:27:37.551Z,13.70
2023-01-02T06:30:06.469Z,13.70
2023-01-02T06:32:34.333Z,13.60
2023-01-02T06:35:03.538Z,13.60
2023-01-02T06:37:31.461Z,13.60
2023-01-02T06:39:59.319Z,13.60
2023-01-02T06:42:27.202Z,13.50
2023-01-02T06:44:56.468Z,13.50
2023-01-02T06:47:24.697Z,13.50
2023-01-02T06:49:52.570Z,13.40
2023-01-02T06:52:22.171Z,13.40
2023-01-02T06:54:50.107Z,13.40
2023-01-02T06:57:17.931Z,13.40
2023-01-02T06:59:45.809Z,13.40
2023-01-02T07:02:14.681Z,13.30
2023-01-02T07:04:43.215Z,13.30
2023-01-02T07:07:11.032Z,13.30
2023-01-02T07:09:40.921Z,13.30
2023-01-02T07:12:09.041Z,13.30
2023-01-02T07:14:36.867Z,13.20
2023-01-02T07:17:05.138Z,13.20
2023-01-02T07:19:33.353Z,13.20
2023-01-02T07:22:01.374Z,13.20
2023-01-02T07:24:29.631Z,13.20
2023-01-02T07:26:58.922Z,13.20
2023-01-02T07:29:27.367Z,13.10
2023-01-02T07:31:55.315Z,13.10
2023-01-02T07:34:23.610Z,13.10
2023-01-02T07:36:51.569Z,13.00
2023-01-02T07:39:20.048Z,13.00
2023-01-02T07:41:48.707Z,13.00
2023-01-02T07:44:19.047Z,13.00
2023-01-02T07:46:48.039Z,13.00
2023-01-02T07:49:16.206Z,13.00
2023-01-02T07:51:44.054Z,13.00
2023-01-02T07:54:11.910Z,13.10
2023-01-02T07:56:39.843Z,13.10
2023-01-02T07:59:07.895Z,13.10
2023-01-02T08:01:37.116Z,13.20
2023-01-02T08:04:06.159Z,13.20
2023-01-02T08:06:34.308Z,13.20
2023-01-02T08:09:02.171Z,13.20
2023-01-02T08:11:30.066Z,13.30
2023-01-02T08:13:58.542Z,13.30
2023-01-02T08:16:26.511Z,13.30
2023-01-02T08:18:56.565Z,13.40
2023-01-02T08:21:25.213Z,13.40
2023-01-02T08:23:53.291Z,13.40
2023-01-02T08:26:21.764Z,13.40
2023-01-02T08:28:49.650Z,13.50
2023-01-02T08:31:19.289Z,13.50
2023-01-02T08:33:47.691Z,13.60
2023-01-02T08:36:16.955Z,13.60
2023-01-02T08:38:44.978Z,13.60
2023-01-02T08:41:12.826Z,13.60
2023-01-02T08:43:41.132Z,13.60
2023-01-02T08:46:10.731Z,13.70
2023-01-02T08:48:38.846Z,13.70
2023-01-02T08:51:06.992Z,13.70
2023-01-02T08:53:36.223Z,13.70
2023-01-02T08:56:24.448Z,13.70
2023-01-02T08:58:54.375Z,13.70
2023-01-02T09:01:23.705Z,13.70
2023-01-02T09:03:52.504Z,13.70
2023-01-02T09:06:22.332Z,13.70
2023-01-02T09:08:53.244Z,13.70
2023-01-02T09:11:24.033Z,13.70
2023-01-02T09:13:52.184Z,13.80
2023-01-02T09:16:22.222Z,13.80
2023-01-02T09:18:50.893Z,13.80
2023-01-02T09:21:19.028Z,13.80
2023-01-02T09:23:46.916Z,13.80
2023-01-02T09:26:16.443Z,13.90
2023-01-02T09:28:44.428Z,13.90
2023-01-02T09:31:14.328Z,13.90
2023-01-02T09:33:43.203Z,13.90
2023-01-02T09:36:13.428Z,13.90
2023-01-02T09:38:41.307Z,14.00
2023-01-02T09:41:23.062Z,14.00
2023-01-02T09:43:56.144Z,14.10
2023-01-02T09:46:32.484Z,14.10
2023-01-02T09:49:01.516Z,14.10
2023-01-02T09:51:29.827Z,14.20
2023-01-02T09:53:57.996Z,14.20
2023-01-02T09:56:34.313Z,14.20
2023-01-02T09:59:11.704Z,14.30
2023-01-02T10:01:51.802Z,14.30
2023-01-02T10:04:29.765Z,14.30
2023-01-02T10:07:05.487Z,14.30
2023-01-02T10:09:40.237Z,14.40
2023-01-02T10:12:15.600Z,14.50
2023-01-02T10:14:53.892Z,14.50
2023-01-02T10:17:22.925Z,14.60
2023-01-02T10:19:55.543Z,14.60
2023-01-02T10:22:31.820Z,14.60
2023-01-02T10:25:05.854Z,14.70
2023-01-02T10:27:40.789Z,14.70
2023-01-02T10:30:19.527Z,14.70
2023-01-02T10:32:54.364Z,14.70
2023-01-02T10:35:36.113Z,14.80
2023-01-02T10:38:04.366Z,14.80
2023-01-02T10:40:34.199Z,14.80
2023-01-02T10:43:03.682Z,14.80
2023-01-02T10:45:31.692Z,14.90
2023-01-02T10:47:59.703Z,14.90
2023-01-02T10:50:31.641Z,14.90
2023-01-02T10:53:07.936Z,14.90
2023-01-02T10:55:39.659Z,15.00
2023-01-02T10:58:18.067Z,15.00
2023-01-02T11:00:46.052Z,15.00
2023-01-02T11:03:18.030Z,15.00
2023-01-02T11:05:48.638Z,15.10
2023-01-02T11:08:19.823Z,15.20
2023-01-02T11:10:48.216Z,15.20
2023-01-02T11:13:20.412Z,15.20
2023-01-02T11:15:51.842Z,15.20
2023-01-02T11:18:25.811Z,15.30
2023-01-02T11:20:57.029Z,15.30
2023-01-02T11:23:26.920Z,15.30
2023-01-02T11:25:55.867Z,15.40
2023-01-02T11:28:27.799Z,15.40
2023-01-02T11:31:01.533Z,15.40
2023-01-02T11:33:31.637Z,15.40
2023-01-02T11:36:07.880Z,15.40
2023-01-02T11:38:44.356Z,15.50
2023-01-02T11:41:44.294Z,15.50
2023-01-02T11:44:20.374Z,15.50
2023-01-02T11:46:49.939Z,15.60
2023-01-02T11:49:21.525Z,15.60
2023-01-02T11:51:56.022Z,15.60
2023-01-02T11:54:31.111Z,15.60
2023-01-02T11:57:00.475Z,15.60
2023-01-02T11:59:37.327Z,15.60
2023-01-02T12:02:14.378Z,15.70
2023-01-02T12:04:43.385Z,15.70
2023-01-02T12:07:28.462Z,15.80
2023-01-02T12:10:03.050Z,15.80
2023-01-02T12:12:49.413Z,15.80
2023-01-02T12:15:46.643Z,15.80
2023-01-02T12:18:27.638Z,15.80
2023-01-02T12:21:07.335Z,15.80
2023-01-02T12:24:22.148Z,15.80
2023-01-02T12:26:58.299Z,15.80
2023-01-02T12:29:47.335Z,15.70
2023-01-02T12:32:41.085Z,15.70
2023-01-02T12:35:22.079Z,15.70
2023-01-02T12:37:55.453Z,15.70
2023-01-02T12:40:44.452Z,15.70
2023-01-02T12:43:33.855Z,15.70
2023-01-02T12:46:15.894Z,15.80
2023-01-02T12:49:08.939Z,15.70
2023-01-02T12:51:46.576Z,15.70
2023-01-02T12:54:31.090Z,15.70
2023-01-02T12:57:07.077Z,15.80
2023-01-02T13:00:06.519Z,15.70
2023-01-02T13:02:58.947Z,15.70
2023-01-02T13:05:33.463Z,15.70
2023-01-02T13:08:05.882Z,15.70
2023-01-02T13:10:34.521Z,15.60
2023-01-02T13:13:03.424Z,15.60
2023-01-02T13:15:34.802Z,15.60
2023-01-02T13:18:08.120Z,15.60
2023-01-02T13:20:46.473Z,15.50
2023-01-02T13:23:28.139Z,15.50
2023-01-02T13:26:00.723Z,15.50
2023-01-02T13:28:28.987Z,15.50
2023-01-02T13:31:35.244Z,15.50
2023-01-02T13:33:51.880Z,15.50
2023-01-02T13:36:26.442Z,15.50
2023-01-02T13:38:57.435Z,15.40
2023-01-02T13:41:27.595Z,15.50
2023-01-02T13:43:59.780Z,15.40
2023-01-02T13:47:02.065Z,15.40
2023-01-02T13:49:21.643Z,15.40
2023-01-02T13:51:50.947Z,15.40
2023-01-02T13:54:21.070Z,15.40
2023-01-02T13:57:18.583Z,15.40
2023-01-02T13:59:59.027Z,15.40
2023-01-02T14:02:27.414Z,15.40
2023-01-02T14:04:55.555Z,15.40
2023-01-02T14:07:55.992Z,15.30
2023-01-02T14:10:44.570Z,15.30
2023-01-02T14:13:29.673Z,15.30
2023-01-02T14:16:19.723Z,15.30
2023-01-02T14:19:02.567Z,15.20
2023-01-02T14:21:35.836Z,15.20
2023-01-02T14:24:18.537Z,15.10
2023-01-02T14:26:53.391Z,15.10
2023-01-02T14:29:22.605Z,15.10
2023-01-02T14:31:58.965Z,15.00
2023-01-02T14:34:27.748Z,15.00
2023-01-02T14:36:58.603Z,15.00
2023-01-02T14:39:28.454Z,15.00
2023-01-02T14:42:42.336Z,15.00
2023-01-02T14:45:16.203Z,15.00
2023-01-02T14:47:49.743Z,15.00
2023-01-02T14:50:23.195Z,14.90
2023-01-02T14:53:00.169Z,14.90
2023-01-02T14:55:34.380Z,14.90
2023-01-02T14:58:17.924Z,14.80
2023-01-02T15:00:48.751Z,14.80
2023-01-02T15:03:26.846Z,14.80
2023-01-02T15:06:00.447Z,14.80
2023-01-02T15:08:38.317Z,14.80
2023-01-02T15:11:35.057Z,14.80
2023-01-02T15:14:06.342Z,14.70
2023-01-02T15:16:42.507Z,14.70
2023-01-02T15:19:18.624Z,14.60
2023-01-02T15:21:47.961Z,14.60
2023-01-02T15:24:22.136Z,14.60
2023-01-02T15:26:50.559Z,14.60
2023-01-02T15:29:26.266Z,14.60
2023-01-02T15:31:56.167Z,14.50
2023-01-02T15:34:29.605Z,14.50
2023-01-02T15:36:59.353Z,14.60
2023-01-02T15:39:33.902Z,14.50
2023-01-02T15:42:09.783Z,14.50
2023-01-02T15:44:59.365Z,14.50
2023-01-02T15:47:28.578Z,14.50
2023-01-02T15:49:58.423Z,14.50
2023-01-02T15:52:30.867Z,14.50
2023-01-02T15:54:59.676Z,14.50
2023-01-02T15:57:31.827Z,14.50
2023-01-02T16:00:01.739Z,14.50
2023-01-02T16:02:42.530Z,14.50
2023-01-02T16:05:13.926Z,14.50
2023-01-02T16:07:43.206Z,14.50
2023-01-02T16:10:20.244Z,14.50
2023-01-02T16:12:53.199Z,14.50
2023-01-02T16:15:25.309Z,14.50
2023-01-02T16:17:55.527Z,14.50
2023-01-02T16:20:25.502Z,14.50
2023-01-02T16:22:56.202Z,14.40
2023-01-02T16:25:27.064Z,14.50
2023-01-02T16:27:57.459Z,14.50
2023-01-02T16:30:33.358Z,14.60
2023-01-02T16:33:03.143Z,14.60
2023-01-02T16:35:34.225Z,14.60
2023-01-02T16:38:03.931Z,14.60
2023-01-02T16:41:01.536Z,14.70
2023-01-02T16:43:33.229Z,14.70
2023-01-02T16:46:05.440Z,14.70
2023-01-02T16:48:34.267Z,14.80
2023-01-02T16:51:02.259Z,14.80
2023-01-02T16:53:33.805Z,14.80
2023-01-02T16:56:02.189Z,14.80
2023-01-02T16:58:30.097Z,14.80
2023-01-02T17:00:58.208Z,14.80
2023-01-02T17:03:28.615Z,14.80
2023-01-02T17:06:01.516Z,14.80
2023-01-02T17:08:32.156Z,14.80
2023-01-02T17:11:00.757Z,14.80
2023-01-02T17:13:30.075Z,14.80
2023-01-02T17:15:58.689Z,14.80
2023-01-02T17:18:28.085Z,14.80
2023-01-02T17:20:55.998Z,14.80
2023-01-02T17:23:24.057Z,14.80
2023-01-02T17:25:52.104Z,14.70
2023-01-02T17:28:20.344Z,14.70
2023-01-02T17:30:49.967Z,14.70
2023-01-02T17:33:18.363Z,14.60
2023-01-02T17:35:48.402Z,14.50
2023-01-02T17:38:16.791Z,14.40
2023-01-02T17:40:44.669Z,14.30
2023-01-02T17:43:12.668Z,14.30
2023-01-02T17:45:42.671Z,14.30
2023-01-02T17:48:12.913Z,14.30
2023-01-02T17:50:43.154Z,14.20
2023-01-02T17:53:12.493Z,14.20
2023-01-02T17:55:40.405Z,14.20
2023-01-02T17:58:08.361Z,14.20
2023-01-02T18:00:36.214Z,14.20
2023-01-02T18:03:04.129Z,14.20
2023-01-02T18:05:32.811Z,14.20
2023-01-02T18:08:00.691Z,14.20
2023-01-02T18:10:33.167Z,14.20
2023-01-02T18:13:01.541Z,14.20
2023-01-02T18:15:29.590Z,14.20
2023-01-02T18:18:00.929Z,14.20
2023-01-02T18:20:28.884Z,14.20
2023-01-02T18:22:57.988Z,14.20
2023-01-02T18:25:27.799Z,14.20
2023-01-02T18:28:02.331Z,14.20
2023-01-02T18:30:30.991Z,14.20
2023-01-02T18:33:11.951Z,14.10
2023-01-02T18:35:57.274Z,14.10
2023-01-02T18:38:30.743Z,14.00
2023-01-02T18:40:59.149Z,14.00
2023-01-02T18:43:32.498Z,14.00
2023-01-02T18:46:10.720Z,14.00
2023-01-02T18:48:40.106Z,14.00
2023-01-02T18:51:14.704Z,14.00
2023-01-02T18:53:46.729Z,14.10
2023-01-02T18:56:19.118Z,14.00
2023-01-02T18:58:54.727Z,14.00
2023-01-02T19:01:26.969Z,14.00
2023-01-02T19:04:03.395Z,14.00
2023-01-02T19:06:36.544Z,13.90
2023-01-02T19:09:13.189Z,13.90
2023-01-02T19:11:58.444Z,13.90
2023-01-02T19:14:38.065Z,13.90
2023-01-02T19:17:15.973Z,13.80
2023-01-02T19:19:44.266Z,13.80
2023-01-02T19:22:16.676Z,13.80
2023-01-02T19:24:44.789Z,13.80
2023-01-02T19:27:24.282Z,13.70
2023-01-02T19:29:54.521Z,13.70
2023-01-02T19:32:30.869Z,13.70
2023-01-02T19:35:03.467Z,13.70
2023-01-02T19:37:38.803Z,13.60
2023-01-02T19:40:18.569Z,13.60
2023-01-02T19:42:47.427Z,13.60
2023-01-02T19:45:18.524Z,13.60
2023-01-02T19:47:47.255Z,13.60
2023-01-02T19:50:17.528Z,13.60
2023-01-02T19:52:45.875Z,13.60
2023-01-02T19:55:14.109Z,13.60
2023-01-02T19:57:42.405Z,13.60
2023-01-02T20:00:13.113Z,13.60
2023-01-02T20:02:43.432Z,13.60
2023-01-02T20:05:14.827Z,13.60
2023-01-02T20:07:46.018Z,13.50
2023-01-02T20:10:14.663Z,13.50
2023-01-02T20:12:42.629Z,13.50
2023-01-02T20:15:12.421Z,13.50
2023-01-02T20:17:42.843Z,13.50
2023-01-02T20:20:14.096Z,13.50
2023-01-02T20:22:43.360Z,13.40
2023-01-02T20:25:13.376Z,13.40
2023-01-02T20:27:42.004Z,13.40
2023-01-02T20:30:11.601Z,13.30
2023-01-02T20:32:39.568Z,13.30
2023-01-02T20:35:09.730Z,13.30
2023-01-02T20:37:37.687Z,13.30
2023-01-02T20:40:06.510Z,13.30
2023-01-02T20:42:34.642Z,13.20
2023-01-02T20:45:02.521Z,13.20
2023-01-02T20:47:30.361Z,13.20
2023-01-02T20:49:58.419Z,13.20
2023-01-02T20:52:27.719Z,13.20
2023-01-02T20:54:57.371Z,13.20
2023-01-02T20:57:25.294Z,13.20
2023-01-02T20:59:53.221Z,13.20
2023-01-02T21:02:21.349Z,13.20
2023-01-02T21:04:49.405Z,13.20
2023-01-02T21:07:17.370Z,13.20
2023-01-02T21:09:47.097Z,13.20
2023-01-02T21:12:29.004Z,13.10
2023-01-02T21:14:57.066Z,13.10
2023-01-02T21:17:24.945Z,13.10
2023-01-02T21:19:52.807Z,13.00
2023-01-02T21:22:20.675Z,13.10
2023-01-02T21:24:49.962Z,13.00
2023-01-02T21:27:20.514Z,12.90
2023-01-02T21:29:48.431Z,12.90
2023-01-02T21:32:16.312Z,12.90
2023-01-02T21:34:44.303Z,12.80
2023-01-02T21:37:12.190Z,12.80
2023-01-02T21:39:40.060Z,12.80
2023-01-02T21:42:18.504Z,12.80
2023-01-02T21:44:48.073Z,12.80
2023-01-02T21:47:16.237Z,12.80
2023-01-02T21:49:44.389Z,12.70
2023-01-02T21:52:12.453Z,12.70
2023-01-02T21:54:40.525Z,12.70
2023-01-02T21:57:10.087Z,12.70
2023-01-02T21:59:38.581Z,12.70
2023-01-02T22:02:06.694Z,12.70
2023-01-02T22:04:35.293Z,12.70
2023-01-02T22:07:30.745Z,12.70
2023-01-02T22:09:51.825Z,12.70
2023-01-02T22:12:21.080Z,12.70
2023-01-02T22:14:49.133Z,12.70
2023-01-02T22:17:17.149Z,12.70
2023-01-02T22:19:45.275Z,12.70
2023-01-02T22:22:13.217Z,12.70
2023-01-02T22:24:44.713Z,12.70
2023-01-02T22:27:14.897Z,12.70
2023-01-02T22:30:20.547Z,12.70
2023-01-02T22:32:34.603Z,12.70
2023-01-02T22:35:04.332Z,12.70
2023-01-02T22:37:32.440Z,12.70
2023-01-02T22:40:02.095Z,12.70
2023-01-02T22:43:00.339Z,12.70
2023-01-02T22:45:34.695Z,12.70
2023-01-02T22:48:07.151Z,12.60
2023-01-02T22:50:42.492Z,12.60
2023-01-02T22:53:19.480Z,12.60
2023-01-02T22:55:47.699Z,12.60
2023-01-02T22:58:16.059Z,12.60
2023-01-02T23:00:46.223Z,12.60
2023-01-02T23:03:15.568Z,12.60
2023-01-02T23:05:43.926Z,12.50
2023-01-02T23:08:11.856Z,12.50
2023-01-02T23:10:39.824Z,12.40
2023-01-02T23:13:07.796Z,12.40
2023-01-02T23:15:35.689Z,12.40
2023-01-02T23:18:22.830Z,12.40
2023-01-02T23:20:50.691Z,12.40
2023-01-02T23:23:18.641Z,12.40
2023-01-02T23:25:48.022Z,12.40
2023-01-02T23:28:32.273Z,12.40
2023-01-02T23:31:04.201Z,12.40
2023-01-02T23:33:33.530Z,12.30
2023-01-02T23:36:01.441Z,12.30
2023-01-02T23:38:29.420Z,12.30
2023-01-02T23:40:57.293Z,12.30
2023-01-02T23:43:25.203Z,12.30
2023-01-02T23:45:53.196Z,12.30
2023-01-02T23:48:21.282Z,12.30
2023-01-02T23:50:58.394Z,12.30
2023-01-02T23:53:26.777Z,12.30
2023-01-02T23:55:55.105Z,12.30
2023-01-02T23:58:24.244Z,12.30
